createdAt,value
2018-04-30T00:01:04.203Z,0.67
2018-04-30T00:03:34.336Z,0.77
2018-04-30T00:06:04.328Z,0.60
2018-04-30T00:08:34.275Z,0.70
2018-04-30T00:11:04.136Z,0.50
2018-04-30T00:13:33.974Z,0.50
2018-04-30T00:16:04.786Z,0.60
2018-04-30T00:18:34.757Z,0.60
2018-04-30T00:21:05.787Z,0.73
2018-04-30T00:23:35.616Z,0.73
2018-04-30T00:26:05.819Z,1.03
2018-04-30T00:28:35.722Z,0.40
2018-04-30T00:31:06.879Z,0.70
2018-04-30T00:33:37.772Z,0.70
2018-04-30T00:36:08.598Z,1.10
2018-04-30T00:38:38.463Z,0.80
2018-04-30T00:41:08.446Z,0.90
2018-04-30T00:43:38.356Z,1.00
2018-04-30T00:46:08.207Z,0.73
2018-04-30T00:48:38.582Z,0.80
2018-04-30T00:51:08.609Z,1.10
2018-04-30T00:53:38.459Z,0.90
2018-04-30T00:56:08.515Z,0.90
2018-04-30T00:58:38.375Z,0.70
2018-04-30T01:01:09.084Z,1.23
2018-04-30T01:03:39.757Z,1.13
2018-04-30T01:06:09.525Z,1.00
2018-04-30T01:08:39.308Z,1.30
2018-04-30T01:11:09.024Z,1.10
2018-04-30T01:13:38.999Z,0.90
2018-04-30T01:16:08.908Z,1.20
2018-04-30T01:18:40.317Z,1.30
2018-04-30T01:21:11.942Z,1.40
2018-04-30T01:23:42.639Z,1.40
2018-04-30T01:26:13.225Z,1.20
2018-04-30T01:28:43.103Z,1.20
2018-04-30T01:31:13.930Z,1.30
2018-04-30T01:33:43.969Z,1.40
2018-04-30T01:36:13.992Z,1.20
2018-04-30T01:38:43.974Z,1.70
2018-04-30T01:41:14.766Z,1.27
2018-04-30T01:43:45.124Z,1.20
2018-04-30T01:46:15.211Z,1.30
2018-04-30T01:48:45.330Z,1.30
2018-04-30T01:51:15.369Z,1.37
2018-04-30T01:53:45.318Z,1.50
2018-04-30T01:56:16.226Z,1.20
2018-04-30T01:58:46.210Z,1.40
2018-04-30T02:01:16.163Z,1.60
2018-04-30T02:03:46.244Z,1.20
2018-04-30T02:06:16.260Z,1.27
2018-04-30T02:08:46.233Z,1.10
2018-04-30T02:11:16.194Z,1.33
2018-04-30T02:13:46.127Z,1.33
2018-04-30T02:16:15.972Z,1.27
2018-04-30T02:18:45.702Z,1.30
2018-04-30T02:21:15.647Z,1.17
2018-04-30T02:23:45.451Z,1.70
2018-04-30T02:26:15.218Z,1.50
2018-04-30T02:28:44.974Z,1.27
2018-04-30T02:31:14.840Z,1.50
2018-04-30T02:33:44.701Z,1.70
2018-04-30T02:36:14.477Z,1.70
2018-04-30T02:38:44.267Z,1.53
2018-04-30T02:41:14.067Z,2.03
2018-04-30T02:43:43.924Z,1.90
2018-04-30T02:46:13.771Z,2.10
2018-04-30T02:48:43.598Z,2.13
2018-04-30T02:51:13.454Z,1.87
2018-04-30T02:53:43.618Z,2.33
2018-04-30T02:56:13.440Z,2.07
2018-04-30T02:58:44.064Z,2.07
2018-04-30T03:01:14.561Z,1.60
2018-04-30T03:03:45.473Z,1.83
2018-04-30T03:06:15.317Z,1.97
2018-04-30T03:08:45.107Z,1.80
2018-04-30T03:11:15.382Z,2.13
2018-04-30T03:13:45.257Z,1.80
2018-04-30T03:16:15.868Z,1.80
2018-04-30T03:18:45.731Z,1.80
2018-04-30T03:21:15.645Z,2.20
2018-04-30T03:23:45.632Z,2.00
2018-04-30T03:26:15.521Z,1.80
2018-04-30T03:28:45.496Z,1.83
2018-04-30T03:31:15.331Z,1.43
2018-04-30T03:33:45.181Z,1.60
2018-04-30T03:36:15.353Z,1.93
2018-04-30T03:38:45.257Z,1.67
2018-04-30T03:41:15.087Z,1.80
2018-04-30T03:43:44.933Z,1.63
2018-04-30T03:46:14.747Z,1.50
2018-04-30T03:48:44.662Z,2.00
2018-04-30T03:51:14.428Z,1.93
2018-04-30T03:53:44.349Z,1.70
2018-04-30T03:56:14.540Z,1.67
2018-04-30T03:58:44.415Z,1.83
2018-04-30T04:01:25.185Z,1.60
2018-04-30T04:04:06.049Z,1.80
2018-04-30T04:06:47.000Z,1.53
2018-04-30T04:09:16.854Z,1.37
2018-04-30T04:11:46.721Z,1.70
2018-04-30T04:14:16.508Z,2.03
2018-04-30T04:16:46.281Z,1.60
2018-04-30T04:19:16.188Z,2.10
2018-04-30T04:21:46.124Z,2.00
2018-04-30T04:24:15.919Z,2.30
2018-04-30T04:26:45.841Z,1.80
2018-04-30T04:29:15.638Z,2.20
2018-04-30T04:31:45.488Z,2.00
2018-04-30T04:34:15.314Z,2.23
2018-04-30T04:36:45.130Z,1.53
2018-04-30T04:39:14.941Z,2.80
2018-04-30T04:41:45.540Z,2.43
2018-04-30T04:44:15.511Z,3.10
2018-04-30T04:46:45.313Z,2.07
2018-04-30T04:49:15.934Z,2.57
2018-04-30T04:51:45.768Z,2.87
2018-04-30T04:54:15.680Z,2.77
2018-04-30T04:56:45.615Z,2.60
2018-04-30T04:59:16.431Z,2.20
2018-04-30T05:01:46.461Z,2.30
2018-04-30T05:04:16.364Z,2.50
2018-04-30T05:06:46.216Z,2.60
2018-04-30T05:09:16.111Z,2.63
2018-04-30T05:11:45.966Z,2.20
2018-04-30T05:14:15.738Z,2.87
2018-04-30T05:16:45.556Z,2.60
2018-04-30T05:19:15.366Z,2.83
2018-04-30T05:21:45.141Z,2.83
2018-04-30T05:24:14.988Z,2.77
2018-04-30T05:26:44.810Z,2.53
2018-04-30T05:29:14.531Z,2.83
2018-04-30T05:31:46.323Z,2.60
2018-04-30T05:34:16.186Z,2.40
2018-04-30T05:36:45.973Z,2.77
2018-04-30T05:39:15.974Z,2.50
2018-04-30T05:41:58.448Z,2.60
2018-04-30T05:44:29.011Z,2.37
2018-04-30T05:46:59.111Z,2.30
2018-04-30T05:49:30.317Z,3.00
2018-04-30T05:52:00.091Z,2.70
2018-04-30T05:54:30.646Z,2.50
2018-04-30T05:57:00.721Z,2.20
2018-04-30T05:59:30.590Z,2.00
2018-04-30T06:02:00.433Z,2.10
2018-04-30T06:04:30.193Z,2.33
2018-04-30T06:07:00.082Z,1.87
2018-04-30T06:09:29.941Z,2.07
2018-04-30T06:12:00.488Z,2.17
2018-04-30T06:14:30.313Z,2.40
2018-04-30T06:17:00.090Z,2.83
2018-04-30T06:19:30.169Z,2.27
2018-04-30T06:22:00.751Z,2.03
2018-04-30T06:24:30.513Z,2.57
2018-04-30T06:27:00.365Z,2.33
2018-04-30T06:29:30.186Z,2.33
2018-04-30T06:32:00.403Z,2.33
2018-04-30T06:34:30.173Z,2.80
2018-04-30T06:36:59.976Z,2.57
2018-04-30T06:39:29.781Z,2.80
2018-04-30T06:41:59.554Z,2.67
2018-04-30T06:44:31.687Z,2.40
2018-04-30T06:47:01.476Z,2.70
2018-04-30T06:49:31.315Z,2.40
2018-04-30T06:52:01.100Z,2.63
2018-04-30T06:54:30.895Z,2.50
2018-04-30T06:57:00.634Z,2.63
2018-04-30T06:59:30.433Z,3.00
2018-04-30T07:02:00.287Z,3.00
2018-04-30T07:04:30.055Z,2.90
2018-04-30T07:06:59.838Z,2.90
2018-04-30T07:09:30.262Z,2.83
2018-04-30T07:12:00.975Z,3.00
2018-04-30T07:14:30.750Z,3.03
2018-04-30T07:17:00.544Z,2.80
2018-04-30T07:19:30.375Z,3.27
2018-04-30T07:22:00.902Z,2.50
2018-04-30T07:24:30.646Z,3.23
2018-04-30T07:27:01.275Z,2.87
2018-04-30T07:29:31.054Z,3.13
2018-04-30T07:32:00.881Z,2.50
2018-04-30T07:34:31.578Z,2.87
2018-04-30T07:37:01.318Z,2.57
2018-04-30T07:39:31.174Z,2.70
2018-04-30T07:42:00.914Z,2.90
2018-04-30T07:44:30.747Z,3.00
2018-04-30T07:47:01.783Z,2.20
2018-04-30T07:49:31.604Z,2.60
2018-04-30T07:52:01.330Z,2.47
2018-04-30T07:54:31.901Z,2.70
2018-04-30T07:57:01.672Z,2.30
2018-04-30T07:59:31.415Z,2.50
2018-04-30T08:02:01.226Z,2.70
2018-04-30T08:04:30.986Z,3.27
2018-04-30T08:07:01.120Z,3.47
2018-04-30T08:09:30.951Z,3.20
2018-04-30T08:12:01.500Z,2.73
2018-04-30T08:14:31.282Z,3.77
2018-04-30T08:17:01.123Z,3.43
2018-04-30T08:19:30.902Z,3.70
2018-04-30T08:22:00.696Z,3.20
2018-04-30T08:24:30.519Z,3.57
2018-04-30T08:27:00.287Z,3.37
2018-04-30T08:29:30.033Z,3.00
2018-04-30T08:31:59.809Z,3.13
2018-04-30T08:34:29.557Z,3.13
2018-04-30T08:36:59.325Z,3.23
2018-04-30T08:39:29.132Z,3.60
2018-04-30T08:41:58.976Z,3.27
2018-04-30T08:44:28.828Z,3.13
2018-04-30T08:46:58.616Z,3.83
2018-04-30T08:49:28.342Z,3.10
2018-04-30T08:51:58.094Z,3.50
2018-04-30T08:54:27.930Z,3.93
2018-04-30T08:56:57.646Z,3.30
2018-04-30T08:59:27.482Z,3.17
2018-04-30T09:01:57.271Z,3.17
2018-04-30T09:04:26.982Z,3.17
2018-04-30T09:06:56.701Z,3.23
2018-04-30T09:09:26.555Z,3.13
2018-04-30T09:11:56.303Z,3.43
2018-04-30T09:14:26.118Z,4.37
2018-04-30T09:16:55.945Z,3.60
2018-04-30T09:19:25.806Z,3.60
2018-04-30T09:21:55.576Z,3.63
2018-04-30T09:24:25.341Z,3.87
2018-04-30T09:26:55.162Z,3.13
2018-04-30T09:29:24.912Z,3.83
2018-04-30T09:31:55.088Z,3.70
2018-04-30T09:34:24.908Z,3.60
2018-04-30T09:36:54.756Z,3.57
2018-04-30T09:39:24.543Z,3.70
2018-04-30T09:41:54.318Z,3.47
2018-04-30T09:44:24.934Z,3.57
2018-04-30T09:46:54.724Z,3.43
2018-04-30T09:49:24.505Z,3.20
2018-04-30T09:51:54.289Z,3.80
2018-04-30T09:54:24.022Z,4.20
2018-04-30T09:56:53.900Z,3.93
2018-04-30T09:59:23.709Z,4.37
2018-04-30T10:01:54.277Z,3.83
2018-04-30T10:04:24.013Z,4.07
2018-04-30T10:06:53.774Z,4.17
2018-04-30T10:09:23.505Z,4.20
2018-04-30T10:11:53.318Z,4.40
2018-04-30T10:14:23.181Z,4.03
2018-04-30T10:16:52.923Z,4.90
2018-04-30T10:19:22.737Z,5.27
2018-04-30T10:21:52.519Z,4.87
2018-04-30T10:24:22.289Z,5.37
2018-04-30T10:26:52.095Z,4.47
2018-04-30T10:29:21.861Z,5.20
2018-04-30T10:31:52.500Z,4.87
2018-04-30T10:34:22.456Z,5.03
2018-04-30T10:36:52.331Z,5.50
2018-04-30T10:39:22.318Z,5.17
2018-04-30T10:41:52.171Z,5.67
2018-04-30T10:44:21.972Z,5.97
2018-04-30T10:46:51.690Z,5.07
2018-04-30T10:49:22.304Z,5.17
2018-04-30T10:51:52.149Z,5.20
2018-04-30T10:54:22.008Z,5.47
2018-04-30T10:56:51.842Z,5.63
2018-04-30T10:59:21.664Z,5.27
2018-04-30T11:01:51.464Z,5.27
2018-04-30T11:04:21.233Z,5.43
2018-04-30T11:06:51.048Z,5.00
2018-04-30T11:09:21.677Z,4.60
2018-04-30T11:11:51.515Z,5.90
2018-04-30T11:14:21.468Z,6.20
2018-04-30T11:16:51.248Z,5.47
2018-04-30T11:19:20.993Z,5.73
2018-04-30T11:21:50.804Z,5.37
2018-04-30T11:24:20.602Z,4.60
2018-04-30T11:26:50.340Z,4.80
2018-04-30T11:29:20.179Z,5.60
2018-04-30T11:31:49.935Z,5.73
2018-04-30T11:34:19.721Z,5.63
2018-04-30T11:36:49.534Z,4.97
2018-04-30T11:39:19.357Z,5.60
2018-04-30T11:41:49.195Z,5.50
2018-04-30T11:44:19.740Z,4.93
2018-04-30T11:46:49.534Z,5.30
2018-04-30T11:49:19.448Z,5.00
2018-04-30T11:51:49.215Z,6.17
2018-04-30T11:54:18.993Z,6.63
2018-04-30T11:56:48.960Z,5.80
2018-04-30T11:59:18.824Z,5.87
2018-04-30T12:01:48.639Z,5.87
2018-04-30T12:04:18.410Z,5.57
2018-04-30T12:06:48.244Z,5.80
2018-04-30T12:09:18.012Z,5.87
2018-04-30T12:14:21.778Z,4.53
2018-04-30T12:16:52.264Z,6.07
2018-04-30T12:19:22.109Z,4.63
2018-04-30T12:21:51.864Z,4.80
2018-04-30T12:24:21.924Z,5.03
2018-04-30T12:26:51.728Z,4.67
2018-04-30T12:29:21.594Z,5.63
2018-04-30T12:31:51.422Z,4.70
2018-04-30T12:34:21.248Z,6.57
2018-04-30T12:36:51.047Z,5.17
2018-04-30T12:39:20.825Z,6.13
2018-04-30T12:41:50.788Z,5.23
2018-04-30T12:44:20.526Z,5.20
2018-04-30T12:46:50.301Z,6.07
2018-04-30T12:49:20.230Z,4.83
2018-04-30T12:51:50.079Z,4.80
2018-04-30T12:54:19.953Z,5.20
2018-04-30T12:56:50.551Z,5.23
2018-04-30T12:59:20.344Z,5.23
2018-04-30T13:01:50.239Z,5.23
2018-04-30T13:04:20.219Z,4.70
2018-04-30T13:06:50.051Z,5.10
2018-04-30T13:09:19.916Z,5.50
2018-04-30T13:11:49.729Z,4.40
2018-04-30T13:14:19.503Z,5.33
2018-04-30T13:16:49.287Z,4.80
2018-04-30T13:19:21.033Z,5.83
2018-04-30T13:21:50.736Z,4.83
2018-04-30T13:24:20.534Z,5.00
2018-04-30T13:26:50.262Z,4.67
2018-04-30T13:29:20.027Z,5.27
2018-04-30T13:31:49.749Z,5.20
2018-04-30T13:34:19.511Z,4.80
2018-04-30T13:36:49.304Z,4.27
2018-04-30T13:39:19.079Z,4.93
2018-04-30T13:41:48.876Z,4.80
2018-04-30T13:44:18.657Z,4.60
2018-04-30T13:46:48.468Z,4.33
2018-04-30T13:49:18.266Z,4.17
2018-04-30T13:51:48.032Z,5.27
2018-04-30T13:54:17.880Z,4.63
2018-04-30T13:56:47.776Z,4.40
2018-04-30T13:59:17.603Z,5.50
2018-04-30T14:01:48.226Z,4.40
2018-04-30T14:04:18.007Z,4.50
2018-04-30T14:06:47.928Z,4.63
2018-04-30T14:09:17.713Z,4.73
2018-04-30T14:11:47.795Z,5.30
2018-04-30T14:14:18.353Z,4.97
2018-04-30T14:16:48.695Z,4.80
2018-04-30T14:19:21.771Z,4.70
2018-04-30T14:21:51.722Z,4.40
2018-04-30T14:24:21.552Z,4.60
2018-04-30T14:26:51.366Z,4.60
2018-04-30T14:29:21.854Z,4.10
2018-04-30T14:31:51.637Z,4.33
2018-04-30T14:34:21.412Z,4.17
2018-04-30T14:36:51.201Z,4.60
2018-04-30T14:39:20.973Z,4.37
2018-04-30T14:41:50.907Z,3.60
2018-04-30T14:44:21.440Z,4.20
2018-04-30T14:46:51.261Z,4.17
2018-04-30T14:49:21.140Z,4.07
2018-04-30T14:51:50.869Z,4.33
2018-04-30T14:54:20.607Z,4.83
2018-04-30T14:56:50.469Z,4.03
2018-04-30T14:59:20.402Z,4.47
2018-04-30T15:01:50.293Z,4.53
2018-04-30T15:04:20.173Z,4.63
2018-04-30T15:06:49.977Z,5.00
2018-04-30T15:09:19.783Z,4.67
2018-04-30T15:11:49.585Z,4.40
2018-04-30T15:14:19.438Z,3.97
2018-04-30T15:16:49.218Z,4.53
2018-04-30T15:19:19.149Z,4.50
2018-04-30T15:21:49.259Z,3.97
2018-04-30T15:24:19.084Z,4.40
2018-04-30T15:26:48.837Z,4.60
2018-04-30T15:29:18.706Z,4.87
2018-04-30T15:31:48.496Z,5.10
2018-04-30T15:34:19.785Z,4.60
2018-04-30T15:36:49.587Z,4.83
2018-04-30T15:39:19.413Z,4.07
2018-04-30T15:41:49.201Z,4.20
2018-04-30T15:44:19.019Z,4.87
2018-04-30T15:46:48.793Z,4.57
2018-04-30T15:49:18.586Z,4.30
2018-04-30T15:51:48.403Z,5.03
2018-04-30T15:54:18.143Z,4.00
2018-04-30T15:56:47.966Z,4.83
2018-04-30T15:59:17.825Z,4.53
2018-04-30T16:01:47.560Z,4.43
2018-04-30T16:04:17.435Z,4.27
2018-04-30T16:06:47.946Z,4.83
2018-04-30T16:09:19.417Z,4.90
2018-04-30T16:11:49.355Z,4.77
2018-04-30T16:14:19.330Z,4.73
2018-04-30T16:16:49.264Z,4.63
2018-04-30T16:19:19.808Z,4.87
2018-04-30T16:21:50.432Z,5.53
2018-04-30T16:24:20.241Z,4.60
2018-04-30T16:26:50.838Z,4.93
2018-04-30T16:29:21.631Z,4.90
2018-04-30T16:31:51.432Z,5.40
2018-04-30T16:34:21.997Z,5.00
2018-04-30T16:36:51.731Z,4.93
2018-04-30T16:39:21.427Z,4.50
2018-04-30T16:41:51.197Z,5.33
2018-04-30T16:44:20.939Z,4.77
2018-04-30T16:46:50.739Z,5.07
2018-04-30T16:49:20.557Z,5.00
2018-04-30T16:51:50.340Z,4.67
2018-04-30T16:54:20.913Z,4.30
2018-04-30T16:56:50.720Z,4.73
2018-04-30T16:59:20.499Z,4.73
2018-04-30T17:01:50.332Z,4.60
2018-04-30T17:04:20.079Z,4.57
2018-04-30T17:06:49.886Z,5.17
2018-04-30T17:09:19.617Z,5.20
2018-04-30T17:11:49.463Z,5.20
2018-04-30T17:14:19.211Z,5.17
2018-04-30T17:16:49.020Z,4.80
2018-04-30T17:19:19.085Z,4.17
2018-04-30T17:21:48.797Z,3.80
2018-04-30T17:24:18.668Z,4.20
2018-04-30T17:26:48.392Z,5.03
2018-04-30T17:29:18.208Z,4.53
2018-04-30T17:31:48.037Z,4.77
2018-04-30T17:34:18.021Z,4.67
2018-04-30T17:36:47.798Z,4.30
2018-04-30T17:39:17.490Z,4.13
2018-04-30T17:41:48.018Z,4.80
2018-04-30T17:44:18.576Z,4.80
2018-04-30T17:46:48.357Z,4.17
2018-04-30T17:49:18.091Z,4.43
2018-04-30T17:51:47.852Z,4.27
2018-04-30T17:54:19.117Z,4.60
2018-04-30T17:56:49.169Z,4.90
2018-04-30T17:59:19.005Z,4.23
2018-04-30T18:01:49.882Z,5.17
2018-04-30T18:04:19.842Z,4.27
2018-04-30T18:06:49.633Z,3.90
2018-04-30T18:09:21.266Z,4.43
2018-04-30T18:11:52.207Z,5.37
2018-04-30T18:14:21.992Z,4.20
2018-04-30T18:16:51.788Z,4.40
2018-04-30T18:19:22.981Z,4.47
2018-04-30T18:21:55.127Z,4.47
2018-04-30T18:24:25.031Z,4.10
2018-04-30T18:26:56.382Z,3.67
2018-04-30T18:29:27.972Z,3.83
2018-04-30T18:31:59.294Z,4.80
2018-04-30T18:34:30.044Z,4.97
2018-04-30T18:36:59.823Z,4.27
2018-04-30T18:39:31.276Z,4.17
2018-04-30T18:42:01.027Z,3.80
2018-04-30T18:44:30.798Z,5.10
2018-04-30T18:47:00.738Z,4.10
2018-04-30T18:49:30.515Z,4.70
2018-04-30T18:52:00.271Z,4.53
2018-04-30T18:54:30.023Z,4.00
2018-04-30T18:56:59.724Z,3.87
2018-04-30T18:59:29.470Z,4.37
2018-04-30T19:01:59.309Z,4.50
2018-04-30T19:04:31.273Z,4.07
2018-04-30T19:07:01.006Z,3.80
2018-04-30T19:09:30.760Z,4.13
2018-04-30T19:12:00.607Z,4.87
2018-04-30T19:14:30.535Z,4.00
2018-04-30T19:17:00.402Z,3.90
2018-04-30T19:19:30.167Z,4.30
2018-04-30T19:21:59.940Z,3.50
2018-04-30T19:24:29.715Z,4.10
2018-04-30T19:26:59.491Z,4.13
2018-04-30T19:29:29.363Z,3.87
2018-04-30T19:31:59.216Z,4.10
2018-04-30T19:34:29.872Z,2.77
2018-04-30T19:36:59.729Z,3.23
2018-04-30T19:39:29.535Z,3.13
2018-04-30T19:41:59.330Z,3.87
2018-04-30T19:44:29.158Z,3.27
2018-04-30T19:46:59.000Z,3.50
2018-04-30T19:49:28.772Z,3.10
2018-04-30T19:51:58.520Z,2.87
2018-04-30T19:54:28.327Z,3.43
2018-04-30T19:56:58.193Z,3.10
2018-04-30T19:59:28.021Z,3.30
2018-04-30T20:01:57.779Z,3.20
2018-04-30T20:04:27.588Z,3.47
2018-04-30T20:06:57.379Z,3.40
2018-04-30T20:09:27.112Z,3.00
2018-04-30T20:11:56.949Z,3.37
2018-04-30T20:14:26.845Z,3.47
2018-04-30T20:16:56.602Z,3.57
2018-04-30T20:19:26.413Z,3.13
2018-04-30T20:21:56.221Z,2.83
2018-04-30T20:24:26.030Z,2.80
2018-04-30T20:26:55.849Z,2.83
2018-04-30T20:29:25.662Z,2.97
2018-04-30T20:31:55.476Z,3.17
2018-04-30T20:34:25.325Z,3.10
2018-04-30T20:36:55.148Z,3.07
2018-04-30T20:39:26.584Z,3.03
2018-04-30T20:41:58.368Z,2.90
2018-04-30T20:44:31.003Z,3.40
2018-04-30T20:47:01.010Z,2.73
2018-04-30T20:49:30.785Z,2.70
2018-04-30T20:52:00.567Z,3.20
2018-04-30T20:54:30.564Z,3.20
2018-04-30T20:57:00.282Z,3.23
2018-04-30T20:59:30.104Z,2.43
2018-04-30T21:01:59.946Z,2.73
2018-04-30T21:04:30.336Z,2.97
2018-04-30T21:07:00.123Z,2.47
2018-04-30T21:09:29.927Z,2.53
2018-04-30T21:11:59.859Z,2.40
2018-04-30T21:14:29.763Z,2.77
2018-04-30T21:16:59.779Z,3.27
2018-04-30T21:19:29.607Z,2.60
2018-04-30T21:21:59.417Z,2.87
2018-04-30T21:24:29.426Z,3.00
2018-04-30T21:26:59.369Z,2.90
2018-04-30T21:29:31.219Z,2.63
2018-04-30T21:32:00.964Z,2.80
2018-04-30T21:34:30.882Z,2.30
2018-04-30T21:37:00.963Z,2.33
2018-04-30T21:39:30.786Z,2.40
2018-04-30T21:42:00.571Z,2.37
2018-04-30T21:44:30.312Z,2.50
2018-04-30T21:47:00.202Z,2.17
2018-04-30T21:49:29.958Z,3.07
2018-04-30T21:51:59.892Z,2.80
2018-04-30T21:54:29.692Z,2.47
2018-04-30T21:56:59.421Z,2.43
2018-04-30T21:59:29.263Z,2.10
2018-04-30T22:01:59.010Z,2.10
2018-04-30T22:04:28.896Z,2.50
2018-04-30T22:06:58.840Z,2.30
2018-04-30T22:09:29.432Z,2.33
2018-04-30T22:11:59.294Z,2.47
2018-04-30T22:14:29.856Z,2.33
2018-04-30T22:16:59.579Z,2.40
2018-04-30T22:19:29.390Z,2.10
2018-04-30T22:21:59.205Z,2.30
2018-04-30T22:24:29.048Z,2.10
2018-04-30T22:26:58.825Z,1.97
2018-04-30T22:29:28.615Z,1.90
2018-04-30T22:31:58.542Z,2.00
2018-04-30T22:34:28.365Z,1.97
2018-04-30T22:36:58.122Z,2.00
2018-04-30T22:39:27.927Z,1.90
2018-04-30T22:41:57.668Z,2.07
2018-04-30T22:44:27.416Z,1.80
2018-04-30T22:46:57.423Z,2.00
2018-04-30T22:49:27.205Z,1.80
2018-04-30T22:51:57.016Z,2.20
2018-04-30T22:54:26.862Z,2.20
2018-04-30T22:56:56.650Z,1.90
2018-04-30T22:59:26.832Z,2.10
2018-04-30T23:01:56.659Z,2.03
2018-04-30T23:04:26.539Z,2.00
2018-04-30T23:06:56.321Z,2.10
2018-04-30T23:09:26.083Z,1.97
2018-04-30T23:11:55.854Z,2.27
2018-04-30T23:14:25.625Z,1.80
2018-04-30T23:16:55.472Z,2.30
2018-04-30T23:19:25.275Z,2.20
2018-04-30T23:21:55.190Z,2.27
2018-04-30T23:24:24.951Z,2.80
2018-04-30T23:26:54.785Z,2.30
2018-04-30T23:29:24.655Z,2.17
2018-04-30T23:31:55.195Z,1.90
2018-04-30T23:34:25.042Z,2.30
2018-04-30T23:36:54.833Z,2.47
2018-04-30T23:39:24.794Z,2.40
2018-04-30T23:41:54.587Z,2.57
2018-04-30T23:44:24.446Z,2.47
2018-04-30T23:46:54.267Z,1.93
2018-04-30T23:49:23.979Z,2.03
2018-04-30T23:51:53.766Z,2.10
2018-04-30T23:54:23.479Z,1.90
2018-04-30T23:56:53.243Z,2.73
2018-04-30T23:59:23.079Z,1.87
